Terminal Aerodrome Forecast
Issued by NWS

Home | Current Version | Previous Version | Text Only | Print | Product List | Glossary On
Versions: 1 2 3 4 5 6 7 8 9 10 11 12 13 14 15 16 17 18 19 20 21 22
000
FTUS45 KREV 031120
TAFTRK
TAF
KTRK 031120Z 0312/0412 20010KT P6SM FEW180
     FM031800 22014G23KT P6SM SCT180
     FM040200 17008KT P6SM FEW180
     FM040400 VRB04KT P6SM FEW070=

USA.gov is the U.S. government's official web portal to all federal, state and local government web resources and services.